This is the latest recevied weather packets stored in our database for station/object M0UPS-13. If no packets are shown the sender has not sent any weather packets the latest 10 day(s).
| Time | Temp. | Humidity | Pressure | Rain* | Wind** | Luminosity | Snow |
|---|---|---|---|---|---|---|---|
| 1778070302 | 15.56° C | 49% | 1013.3 hPa | 0 mm | - | 790 W/m² | - |
| 1778070002 | 16.11° C | 48% | 1013.3 hPa | 0 mm | - | 191 W/m² | - |
| 1778069703 | 15.56° C | 51% | 1013.6 hPa | 0 mm | - | 851 W/m² | - |
| 1778069402 | 16.67° C | 47% | 1013.4 hPa | 0 mm | - | 218 W/m² | - |
| 1778069102 | 16.11° C | 48% | 1013.5 hPa | 0 mm | - | 883 W/m² | - |
| 1778068803 | 15.56° C | 51% | 1013.4 hPa | 0 mm | - | 801 W/m² | - |
| 1778068503 | 15.56° C | 50% | 1013.5 hPa | 0 mm | - | 814 W/m² | - |
| 1778068203 | 14.44° C | 54% | 1013.4 hPa | 0 mm | - | 835 W/m² | - |
| 1778067903 | 15° C | 50% | 1013.3 hPa | 0 mm | - | 227 W/m² | - |
| 1778067602 | 15° C | 48% | 1013.4 hPa | 0 mm | - | 947 W/m² | - |
| 1778067303 | 13.89° C | 56% | 1013.2 hPa | 0 mm | - | 878 W/m² | - |
| 1778067002 | 14.44° C | 52% | 1013.4 hPa | 0 mm | - | 205 W/m² | - |
| 1778066702 | 15° C | 50% | 1013.5 hPa | 0 mm | - | 215 W/m² | - |
| 1778066402 | 15.56° C | 48% | 1013.4 hPa | 0 mm | - | 556 W/m² | - |
| 1778066102 | 15.56° C | 47% | 1013.4 hPa | 0 mm | - | 253 W/m² | - |
| 1778065803 | 14.44° C | 51% | 1013.5 hPa | 0 mm | - | 819 W/m² | - |
| 1778065502 | 13.33° C | 52% | 1013.5 hPa | 0 mm | - | 511 W/m² | - |
| 1778065202 | 15° C | 49% | 1013.5 hPa | 0 mm | - | 195 W/m² | - |
| 1778064902 | 14.44° C | 51% | 1013.4 hPa | 0 mm | - | 232 W/m² | - |
| 1778064602 | 15° C | 49% | 1013.5 hPa | 0 mm | - | 859 W/m² | - |
| 1778064302 | 14.44° C | 49% | 1013.6 hPa | 0 mm | - | 752 W/m² | - |
| 1778064002 | 13.33° C | 56% | 1013.4 hPa | 0 mm | - | 748 W/m² | - |
| 1778063702 | 13.89° C | 52% | 1013.5 hPa | 0 mm | - | 227 W/m² | - |
| 1778063402 | 14.44° C | 51% | 1013.3 hPa | 0 mm | - | 825 W/m² | - |
| 1778063102 | 15.56° C | 47% | 1013.6 hPa | 0 mm | - | 318 W/m² | - |
* Rain latest hour (hover to see other rain measurements)
** Current wind speed in m/s (hover to see current wind gust speed)